createdAt,value
2023-05-20T00:00:12.287Z,2.22
2023-05-20T00:02:38.615Z,2.35
2023-05-20T00:05:05.288Z,2.05
2023-05-20T00:07:33.341Z,2.33
2023-05-20T00:09:59.556Z,2.95
2023-05-20T00:12:26.096Z,2.35
2023-05-20T00:14:57.312Z,2.08
2023-05-20T00:17:25.340Z,1.80
2023-05-20T00:19:52.435Z,2.33
2023-05-20T00:22:18.874Z,2.25
2023-05-20T00:24:45.237Z,2.50
2023-05-20T00:27:11.520Z,2.63
2023-05-20T00:29:40.419Z,2.17
2023-05-20T00:32:07.095Z,2.60
2023-05-20T00:34:36.188Z,2.40
2023-05-20T00:39:34.266Z,2.05
2023-05-20T00:42:05.238Z,2.35
2023-05-20T00:44:31.639Z,2.85
2023-05-20T00:46:58.093Z,2.83
2023-05-20T00:49:24.350Z,2.10
2023-05-20T00:51:51.204Z,2.17
2023-05-20T00:54:17.581Z,2.40
2023-05-20T00:56:44.564Z,2.28
2023-05-20T00:59:11.072Z,2.17
2023-05-20T01:01:37.376Z,2.20
2023-05-20T01:04:04.022Z,2.28
2023-05-20T01:06:30.308Z,2.22
2023-05-20T01:08:59.309Z,2.13
2023-05-20T01:11:31.699Z,2.50
2023-05-20T01:14:03.853Z,2.40
2023-05-20T01:16:30.876Z,2.35
2023-05-20T01:18:57.765Z,2.30
2023-05-20T01:21:24.376Z,2.55
2023-05-20T01:23:50.789Z,2.75
2023-05-20T01:26:20.663Z,2.30
2023-05-20T01:28:47.092Z,2.50
2023-05-20T01:31:26.294Z,2.70
2023-05-20T01:33:56.040Z,2.30
2023-05-20T01:36:22.569Z,3.03
2023-05-20T01:38:51.664Z,2.13
2023-05-20T01:41:22.227Z,2.53
2023-05-20T01:43:48.576Z,2.13
2023-05-20T01:46:15.295Z,2.70
2023-05-20T01:48:41.672Z,3.15
2023-05-20T01:51:09.818Z,2.83
2023-05-20T01:53:35.979Z,2.75
2023-05-20T01:56:03.840Z,2.83
2023-05-20T01:58:30.151Z,2.80
2023-05-20T02:00:56.593Z,2.80
2023-05-20T02:03:23.615Z,2.70
2023-05-20T02:05:49.916Z,2.55
2023-05-20T02:08:16.281Z,1.75
2023-05-20T02:10:47.824Z,2.88
2023-05-20T02:13:19.387Z,2.67
2023-05-20T02:15:48.162Z,2.47
2023-05-20T02:18:18.130Z,3.47
2023-05-20T02:20:47.366Z,2.70
2023-05-20T02:23:13.754Z,2.80
2023-05-20T02:25:40.796Z,2.88
2023-05-20T02:28:10.309Z,2.92
2023-05-20T02:30:38.851Z,2.47
2023-05-20T02:33:05.311Z,2.60
2023-05-20T02:35:35.056Z,2.97
2023-05-20T02:38:06.364Z,2.97
2023-05-20T02:40:32.625Z,3.28
2023-05-20T02:43:00.204Z,2.70
2023-05-20T02:45:26.508Z,3.13
2023-05-20T02:47:53.026Z,2.95
2023-05-20T02:50:19.301Z,2.75
2023-05-20T02:55:15.987Z,2.85
2023-05-20T02:57:42.125Z,2.45
2023-05-20T03:00:12.902Z,2.83
2023-05-20T03:02:42.878Z,2.25
2023-05-20T03:05:09.373Z,2.67
2023-05-20T03:07:36.160Z,2.60
2023-05-20T03:10:02.891Z,3.00
2023-05-20T03:12:30.298Z,2.72
2023-05-20T03:14:58.554Z,2.92
2023-05-20T03:17:29.517Z,2.92
2023-05-20T03:19:55.791Z,3.30
2023-05-20T03:22:21.955Z,2.20
2023-05-20T03:24:48.549Z,3.05
2023-05-20T03:27:14.807Z,2.63
2023-05-20T03:29:41.193Z,3.40
2023-05-20T03:32:08.779Z,3.17
2023-05-20T03:34:37.943Z,2.88
2023-05-20T03:37:04.260Z,3.33
2023-05-20T03:39:35.718Z,3.00
2023-05-20T03:42:01.964Z,2.67
2023-05-20T03:44:28.115Z,3.20
2023-05-20T03:46:54.370Z,3.50
2023-05-20T03:49:20.548Z,3.13
2023-05-20T03:51:46.826Z,2.70
2023-05-20T03:54:13.205Z,3.30
2023-05-20T03:56:44.815Z,2.53
2023-05-20T03:59:11.139Z,2.35
2023-05-20T04:01:39.840Z,2.65
2023-05-20T04:04:09.017Z,2.50
2023-05-20T04:06:35.716Z,2.47
2023-05-20T04:09:02.060Z,2.50
2023-05-20T04:11:28.247Z,3.00
2023-05-20T04:13:54.421Z,2.40
2023-05-20T04:16:23.173Z,2.78
2023-05-20T04:18:50.310Z,3.38
2023-05-20T04:21:16.484Z,3.35
2023-05-20T04:23:42.796Z,2.92
2023-05-20T04:26:09.033Z,2.70
2023-05-20T04:28:37.374Z,3.75
2023-05-20T04:31:07.192Z,3.33
2023-05-20T04:33:37.660Z,2.97
2023-05-20T04:36:05.175Z,2.67
2023-05-20T04:38:32.158Z,2.85
2023-05-20T04:40:59.384Z,3.30
2023-05-20T04:43:29.508Z,3.00
2023-05-20T04:45:56.936Z,3.45
2023-05-20T04:48:23.486Z,3.22
2023-05-20T04:50:50.045Z,3.05
2023-05-20T04:53:21.862Z,2.83
2023-05-20T04:55:49.293Z,3.40
2023-05-20T04:58:17.262Z,3.38
2023-05-20T05:00:45.946Z,3.38
2023-05-20T05:03:12.639Z,3.33
2023-05-20T05:05:40.263Z,3.70
2023-05-20T05:08:06.806Z,3.33
2023-05-20T05:10:33.188Z,3.47
2023-05-20T05:12:59.387Z,3.70
2023-05-20T05:15:25.840Z,3.70
2023-05-20T05:17:52.148Z,4.45
2023-05-20T05:20:18.522Z,3.58
2023-05-20T05:22:47.837Z,3.70
2023-05-20T05:25:14.066Z,3.67
2023-05-20T05:27:40.451Z,3.40
2023-05-20T05:30:07.652Z,3.47
2023-05-20T05:32:34.014Z,4.32
2023-05-20T05:35:00.472Z,3.70
2023-05-20T05:37:28.348Z,3.90
2023-05-20T05:39:54.532Z,3.40
2023-05-20T05:42:20.775Z,3.55
2023-05-20T05:44:47.662Z,3.45
2023-05-20T05:47:14.270Z,3.30
2023-05-20T05:49:43.184Z,3.45
2023-05-20T05:52:14.063Z,3.83
2023-05-20T05:54:40.154Z,3.78
2023-05-20T05:57:07.395Z,3.00
2023-05-20T05:59:36.748Z,3.80
2023-05-20T06:02:02.960Z,3.75
2023-05-20T06:04:29.288Z,3.83
2023-05-20T06:06:56.272Z,3.80
2023-05-20T06:09:22.618Z,4.03
2023-05-20T06:11:49.040Z,4.03
2023-05-20T06:14:15.230Z,4.13
2023-05-20T06:16:44.598Z,3.95
2023-05-20T06:19:13.951Z,2.92
2023-05-20T06:21:41.916Z,3.72
2023-05-20T06:24:08.284Z,3.95
2023-05-20T06:26:34.456Z,4.55
2023-05-20T06:29:02.722Z,4.32
2023-05-20T06:31:29.885Z,4.35
2023-05-20T06:33:56.185Z,4.45
2023-05-20T06:36:23.391Z,3.97
2023-05-20T06:38:49.672Z,4.32
2023-05-20T06:41:15.993Z,4.82
2023-05-20T06:43:42.942Z,4.82
2023-05-20T06:46:09.104Z,4.45
2023-05-20T06:48:35.296Z,4.47
2023-05-20T06:51:01.599Z,4.25
2023-05-20T06:53:27.714Z,3.70
2023-05-20T06:55:55.609Z,3.70
2023-05-20T06:58:24.568Z,4.00
2023-05-20T07:00:53.279Z,3.97
2023-05-20T07:03:19.713Z,4.18
2023-05-20T07:05:45.959Z,3.88
2023-05-20T07:08:15.276Z,4.32
2023-05-20T07:10:41.527Z,4.60
2023-05-20T07:13:07.798Z,4.25
2023-05-20T07:15:34.422Z,5.18
2023-05-20T07:18:00.757Z,4.07
2023-05-20T07:20:29.527Z,4.13
2023-05-20T07:22:55.667Z,4.63
2023-05-20T07:25:21.961Z,3.97
2023-05-20T07:27:48.147Z,4.78
2023-05-20T07:30:14.404Z,4.15
2023-05-20T07:32:40.805Z,4.43
2023-05-20T07:35:07.467Z,4.35
2023-05-20T07:37:33.625Z,4.38
2023-05-20T07:39:59.923Z,4.07
2023-05-20T07:42:26.133Z,4.15
2023-05-20T07:44:52.564Z,4.25
2023-05-20T07:47:21.383Z,3.78
2023-05-20T07:49:47.969Z,4.35
2023-05-20T07:52:14.278Z,4.40
2023-05-20T07:54:41.340Z,5.55
2023-05-20T07:57:13.676Z,4.38
2023-05-20T07:59:39.838Z,3.72
2023-05-20T08:02:06.740Z,3.83
2023-05-20T08:04:35.024Z,3.70
2023-05-20T08:07:01.539Z,3.38
2023-05-20T08:09:27.827Z,3.63
2023-05-20T08:11:57.075Z,4.65
2023-05-20T08:14:23.552Z,4.50
2023-05-20T08:16:51.604Z,3.75
2023-05-20T08:19:19.559Z,4.38
2023-05-20T08:21:46.436Z,3.70
2023-05-20T08:24:12.668Z,3.60
2023-05-20T08:26:39.712Z,3.97
2023-05-20T08:29:06.046Z,4.45
2023-05-20T08:31:34.911Z,4.15
2023-05-20T08:34:02.268Z,4.38
2023-05-20T08:36:28.674Z,3.92
2023-05-20T08:38:55.680Z,3.83
2023-05-20T08:41:22.418Z,3.42
2023-05-20T08:43:49.768Z,3.83
2023-05-20T08:46:18.169Z,3.83
2023-05-20T08:48:49.832Z,3.92
2023-05-20T08:51:21.708Z,3.78
2023-05-20T08:53:49.328Z,4.15
2023-05-20T08:58:46.973Z,3.75
2023-05-20T09:01:13.463Z,3.50
2023-05-20T09:03:46.279Z,3.65
2023-05-20T09:06:20.873Z,4.15
2023-05-20T09:08:53.466Z,4.43
2023-05-20T09:11:22.193Z,4.03
2023-05-20T09:13:50.467Z,3.15
2023-05-20T09:16:16.766Z,3.70
2023-05-20T09:18:44.626Z,3.67
2023-05-20T09:21:11.390Z,3.97
2023-05-20T09:23:38.287Z,4.32
2023-05-20T09:26:07.096Z,4.00
2023-05-20T09:28:35.672Z,4.20
2023-05-20T09:31:01.994Z,4.28
2023-05-20T09:33:31.728Z,5.20
2023-05-20T09:36:04.674Z,4.18
2023-05-20T09:38:38.674Z,3.85
2023-05-20T09:41:12.131Z,4.40
2023-05-20T09:43:44.246Z,4.22
2023-05-20T09:46:13.855Z,4.68
2023-05-20T09:48:40.519Z,4.70
2023-05-20T09:51:09.396Z,4.70
2023-05-20T09:53:35.782Z,4.45
2023-05-20T09:56:02.133Z,4.60
2023-05-20T09:58:30.468Z,5.00
2023-05-20T10:00:57.300Z,4.82
2023-05-20T10:03:27.691Z,4.13
2023-05-20T10:06:28.016Z,4.15
2023-05-20T10:09:24.102Z,5.68
2023-05-20T10:15:04.775Z,4.82
2023-05-20T10:17:46.191Z,5.70
2023-05-20T10:20:14.735Z,6.25
2023-05-20T10:22:47.470Z,6.10
2023-05-20T10:25:26.736Z,6.05
2023-05-20T10:28:06.562Z,5.90
2023-05-20T10:30:33.395Z,5.50
2023-05-20T10:33:07.065Z,5.63
2023-05-20T10:35:34.630Z,6.40
2023-05-20T10:38:11.565Z,5.70
2023-05-20T10:40:38.640Z,6.40
2023-05-20T10:43:12.692Z,6.60
2023-05-20T10:45:52.661Z,5.72
2023-05-20T10:48:31.475Z,5.95
2023-05-20T10:51:05.683Z,6.28
2023-05-20T10:53:43.334Z,5.90
2023-05-20T10:56:26.075Z,5.68
2023-05-20T10:58:54.840Z,5.60
2023-05-20T11:01:29.413Z,6.18
2023-05-20T11:03:59.684Z,6.60
2023-05-20T11:06:28.284Z,5.78
2023-05-20T11:08:55.615Z,5.82
2023-05-20T11:11:22.282Z,6.25
2023-05-20T11:16:29.492Z,5.80
2023-05-20T11:18:55.842Z,6.18
2023-05-20T11:21:22.125Z,5.68
2023-05-20T11:23:54.375Z,6.05
2023-05-20T11:26:21.049Z,6.13
2023-05-20T11:28:47.442Z,6.00
2023-05-20T11:31:13.743Z,6.68
2023-05-20T11:33:43.415Z,6.65
2023-05-20T11:36:23.896Z,6.70
2023-05-20T11:38:56.617Z,5.95
2023-05-20T11:41:26.966Z,6.22
2023-05-20T11:44:00.585Z,6.68
2023-05-20T11:46:28.128Z,6.85
2023-05-20T11:48:55.152Z,7.18
2023-05-20T11:51:34.316Z,6.75
2023-05-20T11:54:04.973Z,5.90
2023-05-20T11:56:33.033Z,6.43
2023-05-20T11:59:00.528Z,6.20
2023-05-20T12:01:29.133Z,6.15
2023-05-20T12:03:55.788Z,6.10
2023-05-20T12:06:25.072Z,5.78
2023-05-20T12:08:51.978Z,6.55
2023-05-20T12:11:21.577Z,5.70
2023-05-20T12:13:53.377Z,6.63
2023-05-20T12:16:19.591Z,5.55
2023-05-20T12:18:46.116Z,6.40
2023-05-20T12:21:13.218Z,6.05
2023-05-20T12:23:39.498Z,6.20
2023-05-20T12:26:09.754Z,6.25
2023-05-20T12:28:38.246Z,6.38
2023-05-20T12:31:04.538Z,6.70
2023-05-20T12:33:30.868Z,6.53
2023-05-20T12:35:57.515Z,6.53
2023-05-20T12:38:23.822Z,6.93
2023-05-20T12:40:50.192Z,6.55
2023-05-20T12:43:16.602Z,6.45
2023-05-20T12:45:42.921Z,6.65
2023-05-20T12:48:09.251Z,6.13
2023-05-20T12:50:38.809Z,6.50
2023-05-20T12:53:07.746Z,6.28
2023-05-20T12:55:33.943Z,6.45
2023-05-20T12:58:00.240Z,6.15
2023-05-20T13:00:26.656Z,6.75
2023-05-20T13:02:53.275Z,6.85
2023-05-20T13:05:19.847Z,5.90
2023-05-20T13:07:46.185Z,6.45
2023-05-20T13:10:12.559Z,6.15
2023-05-20T13:15:08.184Z,6.35
2023-05-20T13:17:34.289Z,6.50
2023-05-20T13:20:04.040Z,6.63
2023-05-20T13:22:30.621Z,6.00
2023-05-20T13:24:56.909Z,6.50
2023-05-20T13:27:23.188Z,6.38
2023-05-20T13:29:49.726Z,6.03
2023-05-20T13:32:16.135Z,5.85
2023-05-20T13:34:42.514Z,5.78
2023-05-20T13:37:10.315Z,6.28
2023-05-20T13:39:37.350Z,6.47
2023-05-20T13:42:03.955Z,6.10
2023-05-20T13:44:31.902Z,5.57
2023-05-20T13:46:58.747Z,6.25
2023-05-20T13:49:25.403Z,6.20
2023-05-20T13:51:51.550Z,6.10
2023-05-20T13:54:24.310Z,5.30
2023-05-20T13:56:51.453Z,6.13
2023-05-20T13:59:17.818Z,5.88
2023-05-20T14:01:56.244Z,5.63
2023-05-20T14:04:28.029Z,5.85
2023-05-20T14:06:54.480Z,5.35
2023-05-20T14:09:20.710Z,5.38
2023-05-20T14:11:51.796Z,5.88
2023-05-20T14:14:18.142Z,5.68
2023-05-20T14:16:44.557Z,5.50
2023-05-20T14:19:11.674Z,6.13
2023-05-20T14:21:37.887Z,5.07
2023-05-20T14:24:04.354Z,5.47
2023-05-20T14:26:32.362Z,6.65
2023-05-20T14:28:58.650Z,5.07
2023-05-20T14:31:26.350Z,5.32
2023-05-20T14:33:54.471Z,5.28
2023-05-20T14:36:20.717Z,5.43
2023-05-20T14:38:49.570Z,5.97
2023-05-20T14:41:16.160Z,6.10
2023-05-20T14:43:42.389Z,5.40
2023-05-20T14:46:08.479Z,5.82
2023-05-20T14:48:34.835Z,4.90
2023-05-20T14:51:01.214Z,5.28
2023-05-20T14:53:30.210Z,5.68
2023-05-20T14:55:58.764Z,5.25
2023-05-20T14:58:25.287Z,5.85
2023-05-20T15:00:53.067Z,4.65
2023-05-20T15:03:25.345Z,4.18
2023-05-20T15:05:51.619Z,4.75
2023-05-20T15:08:17.833Z,4.70
2023-05-20T15:10:44.229Z,5.15
2023-05-20T15:13:10.501Z,4.90
2023-05-20T15:15:36.835Z,4.20
2023-05-20T15:18:04.850Z,4.72
2023-05-20T15:20:31.011Z,5.00
2023-05-20T15:22:59.158Z,4.88
2023-05-20T15:25:26.466Z,4.85
2023-05-20T15:27:52.669Z,4.55
2023-05-20T15:30:18.896Z,4.35
2023-05-20T15:32:45.393Z,4.90
2023-05-20T15:35:11.821Z,5.10
2023-05-20T15:37:38.235Z,4.95
2023-05-20T15:40:04.808Z,4.50
2023-05-20T15:42:31.445Z,4.82
2023-05-20T15:44:57.670Z,5.35
2023-05-20T15:47:27.514Z,4.68
2023-05-20T15:49:54.271Z,4.90
2023-05-20T15:52:20.612Z,5.22
2023-05-20T15:54:50.492Z,4.25
2023-05-20T15:57:16.801Z,4.75
2023-05-20T15:59:45.974Z,5.03
2023-05-20T16:02:13.107Z,5.20
2023-05-20T16:04:39.331Z,4.78
2023-05-20T16:07:05.847Z,4.57
2023-05-20T16:09:34.643Z,4.80
2023-05-20T16:12:01.773Z,4.65
2023-05-20T16:14:28.041Z,5.13
2023-05-20T16:16:55.169Z,5.03
2023-05-20T16:19:21.324Z,4.85
2023-05-20T16:21:47.668Z,4.50
2023-05-20T16:24:14.670Z,4.88
2023-05-20T16:26:41.032Z,4.70
2023-05-20T16:29:07.431Z,4.97
2023-05-20T16:31:33.851Z,5.70
2023-05-20T16:34:00.217Z,7.97
2023-05-20T16:36:26.552Z,6.70
2023-05-20T16:38:53.704Z,4.40
2023-05-20T16:41:20.616Z,4.88
2023-05-20T16:43:46.959Z,4.40
2023-05-20T16:46:14.011Z,4.57
2023-05-20T16:48:40.926Z,4.75
2023-05-20T16:51:07.109Z,4.80
2023-05-20T16:53:35.578Z,3.60
2023-05-20T16:56:01.955Z,4.30
2023-05-20T16:58:28.242Z,4.03
2023-05-20T17:00:57.220Z,4.20
2023-05-20T17:03:23.466Z,4.93
2023-05-20T17:05:49.898Z,4.30
2023-05-20T17:08:16.471Z,4.22
2023-05-20T17:10:42.743Z,4.45
2023-05-20T17:13:09.088Z,4.78
2023-05-20T17:15:38.567Z,4.95
2023-05-20T17:18:04.836Z,4.53
2023-05-20T17:20:31.923Z,4.32
2023-05-20T17:22:59.157Z,4.45
2023-05-20T17:25:25.438Z,4.18
2023-05-20T17:27:51.698Z,4.35
2023-05-20T17:30:21.384Z,4.05
2023-05-20T17:32:53.746Z,5.13
2023-05-20T17:35:20.514Z,4.70
2023-05-20T17:37:46.829Z,4.20
2023-05-20T17:40:13.655Z,4.55
2023-05-20T17:42:40.000Z,4.50
2023-05-20T17:45:06.690Z,4.43
2023-05-20T17:47:33.003Z,4.55
2023-05-20T17:49:59.837Z,4.55
2023-05-20T17:52:26.778Z,4.97
2023-05-20T17:54:53.126Z,5.03
2023-05-20T17:57:20.766Z,4.43
2023-05-20T17:59:46.933Z,4.63
2023-05-20T18:02:13.224Z,4.18
2023-05-20T18:04:39.808Z,4.28
2023-05-20T18:07:07.191Z,4.90
2023-05-20T18:09:33.476Z,4.93
2023-05-20T18:14:31.664Z,5.00
2023-05-20T18:16:58.107Z,4.45
2023-05-20T18:19:25.217Z,4.75
2023-05-20T18:21:55.212Z,4.80
2023-05-20T18:24:22.199Z,4.80
2023-05-20T18:26:51.630Z,4.90
2023-05-20T18:29:17.954Z,5.30
2023-05-20T18:31:44.283Z,5.45
2023-05-20T18:34:10.968Z,4.95
2023-05-20T18:36:37.401Z,5.20
2023-05-20T18:39:04.346Z,5.40
2023-05-20T18:41:45.928Z,5.07
2023-05-20T18:44:14.208Z,5.05
2023-05-20T18:46:44.140Z,5.32
2023-05-20T18:49:13.092Z,5.28
2023-05-20T18:51:39.741Z,5.18
2023-05-20T18:54:06.009Z,4.25
2023-05-20T18:56:32.579Z,4.70
2023-05-20T18:58:59.864Z,5.32
2023-05-20T19:01:34.765Z,4.97
2023-05-20T19:04:07.633Z,5.57
2023-05-20T19:06:35.857Z,5.15
2023-05-20T19:09:03.354Z,5.90
2023-05-20T19:11:30.937Z,4.88
2023-05-20T19:14:03.376Z,5.50
2023-05-20T19:16:29.737Z,5.10
2023-05-20T19:18:56.503Z,5.13
2023-05-20T19:21:25.265Z,5.60
2023-05-20T19:23:52.150Z,5.22
2023-05-20T19:26:18.800Z,5.03
2023-05-20T19:28:46.410Z,5.35
2023-05-20T19:31:15.358Z,4.47
2023-05-20T19:33:41.814Z,5.65
2023-05-20T19:36:10.910Z,5.50
2023-05-20T19:38:38.626Z,4.80
2023-05-20T19:41:05.319Z,5.00
2023-05-20T19:43:42.062Z,5.50
2023-05-20T19:46:08.611Z,4.57
2023-05-20T19:48:40.143Z,5.07
2023-05-20T19:51:06.733Z,5.32
2023-05-20T19:53:37.910Z,4.68
2023-05-20T19:56:04.996Z,5.75
2023-05-20T19:58:31.681Z,4.85
2023-05-20T20:01:06.698Z,4.80
2023-05-20T20:03:33.801Z,5.20
2023-05-20T20:06:00.300Z,5.63
2023-05-20T20:08:29.758Z,5.60
2023-05-20T20:10:55.985Z,5.03
2023-05-20T20:13:24.463Z,4.88
2023-05-20T20:15:56.007Z,5.28
2023-05-20T20:18:22.284Z,5.07
2023-05-20T20:20:49.255Z,5.20
2023-05-20T20:23:15.900Z,4.95
2023-05-20T20:25:47.793Z,5.50
2023-05-20T20:28:14.434Z,5.10
2023-05-20T20:30:40.840Z,5.47
2023-05-20T20:33:09.617Z,5.03
2023-05-20T20:35:36.591Z,5.38
2023-05-20T20:38:15.080Z,6.05
2023-05-20T20:40:44.535Z,6.07
2023-05-20T20:43:19.820Z,5.35
2023-05-20T20:45:49.194Z,5.57
2023-05-20T20:48:24.340Z,5.93
2023-05-20T20:50:53.709Z,5.80
2023-05-20T20:53:20.129Z,5.65
2023-05-20T20:55:51.023Z,5.95
2023-05-20T20:58:17.499Z,5.30
2023-05-20T21:00:48.217Z,5.40
2023-05-20T21:03:14.572Z,5.63
2023-05-20T21:05:44.100Z,5.88
2023-05-20T21:08:12.786Z,5.78
2023-05-20T21:10:38.993Z,6.25
2023-05-20T21:13:05.553Z,6.05
2023-05-20T21:15:31.877Z,6.03
2023-05-20T21:17:58.306Z,5.85
2023-05-20T21:20:25.019Z,6.13
2023-05-20T21:22:51.370Z,6.75
2023-05-20T21:25:19.400Z,6.68
2023-05-20T21:27:45.766Z,7.25
2023-05-20T21:30:12.218Z,7.15
2023-05-20T21:32:40.460Z,6.82
2023-05-20T21:35:09.995Z,6.18
2023-05-20T21:37:36.200Z,6.68
2023-05-20T21:40:02.674Z,6.85
2023-05-20T21:42:29.032Z,7.90
2023-05-20T21:44:55.384Z,6.47
2023-05-20T21:47:25.043Z,6.70
2023-05-20T21:49:54.227Z,6.78
2023-05-20T21:52:20.567Z,6.22
2023-05-20T21:54:50.919Z,6.85
2023-05-20T21:57:17.224Z,7.00
2023-05-20T21:59:46.807Z,6.32
2023-05-20T22:02:13.329Z,6.68
2023-05-20T22:04:39.626Z,6.80
2023-05-20T22:07:06.086Z,7.20
2023-05-20T22:09:32.365Z,7.28
2023-05-20T22:11:59.963Z,6.65
2023-05-20T22:14:27.167Z,7.32
2023-05-20T22:16:53.396Z,8.27
2023-05-20T22:19:19.831Z,7.72
2023-05-20T22:21:50.541Z,7.53
2023-05-20T22:24:17.985Z,8.52
2023-05-20T22:26:44.856Z,8.30
2023-05-20T22:29:11.271Z,7.97
2023-05-20T22:31:37.908Z,9.13
2023-05-20T22:34:05.024Z,8.98
2023-05-20T22:36:33.736Z,8.40
2023-05-20T22:39:04.060Z,8.95
2023-05-20T22:41:30.684Z,9.90
2023-05-20T22:43:57.229Z,8.88
2023-05-20T22:46:27.294Z,9.70
2023-05-20T22:48:54.414Z,9.38
2023-05-20T22:51:21.724Z,9.75
2023-05-20T22:53:48.601Z,9.90
2023-05-20T22:56:15.375Z,10.90
2023-05-20T22:58:42.336Z,10.27
2023-05-20T23:01:09.082Z,10.50
2023-05-20T23:03:35.823Z,10.85
2023-05-20T23:06:02.439Z,10.68
2023-05-20T23:08:30.615Z,10.55
2023-05-20T23:10:56.916Z,11.60
2023-05-20T23:13:23.105Z,11.77
2023-05-20T23:15:53.580Z,12.30
2023-05-20T23:18:20.284Z,12.18
2023-05-20T23:20:47.355Z,10.93
2023-05-20T23:23:14.616Z,11.35
2023-05-20T23:25:41.651Z,10.93
2023-05-20T23:28:09.336Z,11.70
2023-05-20T23:30:36.165Z,10.57
2023-05-20T23:33:03.298Z,12.02
2023-05-20T23:35:29.676Z,10.55
2023-05-20T23:38:00.548Z,11.88
2023-05-20T23:40:27.038Z,10.60
2023-05-20T23:42:53.243Z,11.52
2023-05-20T23:45:21.101Z,11.48
2023-05-20T23:47:47.559Z,12.77
2023-05-20T23:50:13.869Z,12.15
2023-05-20T23:52:40.290Z,11.02
2023-05-20T23:55:09.022Z,11.88
2023-05-20T23:57:35.752Z,11.95
